West Payne, Texas
Current Conditions -  °F | °C
As of 7:15 AM on Friday 28 Nov 2014 (Local Time) from KARM Reporting Station
Scattered Clouds Scattered Clouds  
Wind Chill: 44°   Ceiling: Unl
Heat Index: 47°   Visibility: 10mi
Dew Point: 44°   Wind: 6mph
Humidity: 90%   Direction: 90°E
Pressure: 30.35"   Gusts: NA
Location:  29.1916°N, 96.2212°W
Report Text: KARM 281315Z AUTO 09005KT 10SM SCT037 SCT049 08/07 A3035 RMK AO2 T00810066
Loading
Personal Weather Stations






























Interactive Weather Map New forecast layout! Learn more

10-Day Weather Forecast

Advertisements
Track Severe Weather on mobile